createdAt,value
2022-08-11T00:02:06.589Z,1.03
2022-08-11T00:07:20.988Z,1.10
2022-08-11T00:12:24.893Z,0.70
2022-08-11T00:17:31.826Z,0.90
2022-08-11T00:22:39.680Z,1.13
2022-08-11T00:27:44.193Z,0.83
2022-08-11T00:32:56.354Z,1.20
2022-08-11T00:38:03.877Z,1.20
2022-08-11T00:43:19.806Z,1.27
2022-08-11T00:48:30.679Z,1.00
2022-08-11T00:53:46.957Z,1.20
2022-08-11T00:59:35.198Z,1.10
2022-08-11T01:05:20.291Z,1.40
2022-08-11T01:10:46.327Z,1.07
2022-08-11T01:16:15.203Z,0.80
2022-08-11T01:22:04.277Z,0.97
2022-08-11T01:27:46.819Z,1.50
2022-08-11T01:33:27.885Z,0.90
2022-08-11T01:39:03.243Z,1.30
2022-08-11T01:44:40.234Z,1.40
2022-08-11T01:50:08.261Z,0.93
2022-08-11T01:55:24.143Z,1.40
2022-08-11T02:00:31.877Z,1.40
2022-08-11T02:06:01.198Z,1.67
2022-08-11T02:11:35.583Z,1.57
2022-08-11T02:17:14.658Z,1.30
2022-08-11T02:22:46.118Z,1.30
2022-08-11T02:27:56.387Z,1.57
2022-08-11T02:33:24.117Z,1.23
2022-08-11T02:38:34.433Z,1.37
2022-08-11T02:43:51.381Z,1.40
2022-08-11T02:49:18.507Z,1.40
2022-08-11T02:54:28.363Z,1.20
2022-08-11T02:59:51.267Z,1.40
2022-08-11T03:05:07.251Z,1.50
2022-08-11T03:10:19.288Z,1.37
2022-08-11T03:16:02.476Z,1.33
2022-08-11T03:21:12.125Z,1.20
2022-08-11T03:26:29.135Z,1.63
2022-08-11T03:31:42.599Z,1.10
2022-08-11T03:37:44.282Z,1.30
2022-08-11T03:43:04.000Z,1.13
2022-08-11T03:48:20.821Z,1.57
2022-08-11T03:53:43.734Z,1.20
2022-08-11T03:59:17.595Z,1.43
2022-08-11T04:05:01.048Z,1.60
2022-08-11T04:10:43.189Z,1.50
2022-08-11T04:16:11.444Z,1.20
2022-08-11T04:21:37.765Z,1.30
2022-08-11T04:27:14.358Z,1.47
2022-08-11T04:32:43.471Z,1.30
2022-08-11T04:38:24.083Z,1.47
2022-08-11T04:44:06.935Z,1.27
2022-08-11T04:50:10.730Z,1.20
2022-08-11T04:56:02.541Z,1.20
2022-08-11T05:01:37.718Z,0.90
2022-08-11T05:07:13.586Z,1.00
2022-08-11T05:12:31.019Z,1.10
2022-08-11T05:17:56.596Z,1.30
2022-08-11T05:23:24.129Z,0.97
2022-08-11T05:28:51.223Z,1.13
2022-08-11T05:34:18.185Z,1.20
2022-08-11T05:39:44.010Z,1.20
2022-08-11T05:45:15.258Z,1.20
2022-08-11T05:50:37.882Z,1.73
2022-08-11T05:56:03.883Z,1.33
2022-08-11T06:01:08.382Z,1.17
2022-08-11T06:06:12.323Z,1.80
2022-08-11T06:11:18.161Z,1.47
2022-08-11T06:16:27.012Z,1.20
2022-08-11T06:21:34.793Z,1.20
2022-08-11T06:27:08.668Z,1.03
2022-08-11T06:32:06.392Z,1.30
2022-08-11T06:37:26.137Z,1.40
2022-08-11T06:42:49.243Z,1.00
2022-08-11T06:47:54.318Z,1.20
2022-08-11T06:52:58.413Z,1.00
2022-08-11T06:58:22.474Z,1.00
2022-08-11T07:03:29.758Z,0.97
2022-08-11T07:09:42.233Z,1.10
2022-08-11T07:15:09.908Z,0.97
2022-08-11T07:20:32.496Z,0.70
2022-08-11T07:25:57.776Z,1.00
2022-08-11T07:31:08.988Z,0.80
2022-08-11T07:36:14.064Z,0.80
2022-08-11T07:41:21.086Z,0.63
2022-08-11T07:46:43.638Z,0.70
2022-08-11T07:52:06.065Z,0.83
2022-08-11T07:57:59.479Z,0.97
2022-08-11T08:03:12.288Z,0.70
2022-08-11T08:08:34.460Z,0.80
2022-08-11T08:13:56.984Z,0.80
2022-08-11T08:19:02.070Z,0.90
2022-08-11T08:24:07.904Z,0.70
2022-08-11T08:29:28.872Z,0.70
2022-08-11T08:34:34.239Z,0.60
2022-08-11T08:39:38.753Z,0.70
2022-08-11T08:44:46.128Z,0.70
2022-08-11T08:49:54.948Z,0.90
2022-08-11T08:55:02.678Z,0.80
2022-08-11T09:00:08.751Z,0.90
2022-08-11T09:05:21.138Z,0.90
2022-08-11T09:10:25.486Z,0.70
2022-08-11T09:15:29.404Z,0.80
2022-08-11T09:20:36.540Z,0.80
2022-08-11T09:25:58.063Z,0.80
2022-08-11T09:31:03.385Z,0.80
2022-08-11T09:36:23.558Z,0.90
2022-08-11T09:41:27.352Z,0.70
2022-08-11T09:46:53.090Z,0.90
2022-08-11T09:52:05.357Z,1.00
2022-08-11T09:57:27.151Z,0.70
2022-08-11T10:02:32.192Z,0.90
2022-08-11T10:07:38.223Z,0.80
2022-08-11T10:12:49.374Z,0.80
2022-08-11T10:18:15.655Z,0.90
2022-08-11T10:24:01.204Z,1.00
2022-08-11T10:29:24.574Z,0.80
2022-08-11T10:34:36.972Z,0.60
2022-08-11T10:39:45.965Z,0.80
2022-08-11T10:44:54.286Z,0.77
2022-08-11T10:50:12.302Z,0.67
2022-08-11T10:55:35.768Z,0.70
2022-08-11T11:00:40.131Z,0.90
2022-08-11T11:06:27.778Z,1.00
2022-08-11T11:11:18.370Z,0.93
2022-08-11T11:16:40.154Z,1.00
2022-08-11T11:21:45.069Z,1.10
2022-08-11T11:26:57.999Z,1.00
2022-08-11T11:32:17.511Z,0.90
2022-08-11T11:37:21.950Z,0.93
2022-08-11T11:42:27.478Z,0.70
2022-08-11T11:47:32.353Z,0.90
2022-08-11T11:52:37.227Z,0.70
2022-08-11T11:58:02.621Z,0.70
2022-08-11T12:03:10.948Z,0.73
2022-08-11T12:08:16.216Z,0.80
2022-08-11T12:13:39.159Z,0.70
2022-08-11T12:18:47.075Z,0.77
2022-08-11T12:24:14.851Z,0.80
2022-08-11T12:29:21.744Z,0.70
2022-08-11T12:34:28.361Z,1.00
2022-08-11T12:40:15.743Z,0.70
2022-08-11T12:45:28.497Z,0.50
2022-08-11T12:50:50.544Z,1.00
2022-08-11T12:56:13.968Z,0.90
2022-08-11T13:01:37.839Z,1.03
2022-08-11T13:06:43.539Z,0.87
2022-08-11T13:12:05.558Z,1.00
2022-08-11T13:17:44.119Z,0.80
2022-08-11T13:22:51.334Z,1.00
2022-08-11T13:28:00.287Z,1.00
2022-08-11T13:33:07.622Z,0.80
2022-08-11T13:38:17.499Z,0.80
2022-08-11T13:43:23.539Z,0.70
2022-08-11T13:48:28.760Z,0.70
2022-08-11T13:53:33.613Z,0.80
2022-08-11T13:58:40.845Z,0.90
2022-08-11T14:04:28.952Z,0.90
2022-08-11T14:09:12.540Z,1.00
2022-08-11T14:14:24.298Z,0.80
2022-08-11T14:19:30.181Z,0.80
2022-08-11T14:24:34.727Z,0.70
2022-08-11T14:29:48.638Z,1.00
2022-08-11T14:34:54.650Z,1.20
2022-08-11T14:40:03.200Z,1.17
2022-08-11T14:45:57.612Z,0.90
2022-08-11T14:51:02.849Z,0.93
2022-08-11T14:56:24.575Z,1.00
2022-08-11T15:01:45.848Z,1.00
2022-08-11T15:06:53.382Z,0.93
2022-08-11T15:12:32.533Z,1.10
2022-08-11T15:17:43.398Z,1.00
2022-08-11T15:23:08.805Z,1.00
2022-08-11T15:28:38.713Z,0.83
2022-08-11T15:34:02.580Z,0.90
2022-08-11T15:39:20.705Z,0.90
2022-08-11T15:45:02.103Z,0.90
2022-08-11T15:50:11.699Z,0.70
2022-08-11T15:55:19.659Z,1.00
2022-08-11T16:00:42.086Z,1.20
2022-08-11T16:05:52.908Z,0.70
2022-08-11T16:10:59.505Z,0.60
2022-08-11T16:16:18.757Z,0.73
2022-08-11T16:21:33.661Z,0.80
2022-08-11T16:27:07.470Z,0.77
2022-08-11T16:32:20.645Z,1.10
2022-08-11T16:37:42.926Z,0.90
2022-08-11T16:43:12.574Z,0.70
2022-08-11T16:48:37.067Z,0.60
2022-08-11T16:53:59.607Z,0.60
2022-08-11T16:59:17.906Z,0.50
2022-08-11T17:04:47.144Z,0.50
2022-08-11T17:10:31.870Z,0.77
2022-08-11T17:15:51.640Z,0.67
2022-08-11T17:20:57.057Z,0.70
2022-08-11T17:26:04.435Z,0.83
2022-08-11T17:31:29.243Z,0.70
2022-08-11T17:36:33.238Z,0.70
2022-08-11T17:41:54.936Z,0.80
2022-08-11T17:47:17.425Z,0.80
2022-08-11T17:52:45.991Z,0.80
2022-08-11T17:58:08.309Z,0.63
2022-08-11T18:03:32.814Z,0.57
2022-08-11T18:08:57.925Z,0.70
2022-08-11T18:14:22.269Z,0.73
2022-08-11T18:19:45.067Z,0.67
2022-08-11T18:25:09.197Z,0.60
2022-08-11T18:30:31.162Z,0.50
2022-08-11T18:35:55.308Z,0.40
2022-08-11T18:41:19.579Z,0.50
2022-08-11T18:46:43.146Z,0.50
2022-08-11T18:52:12.462Z,0.60
2022-08-11T18:57:34.288Z,0.57
2022-08-11T19:03:11.305Z,0.50
2022-08-11T19:08:37.190Z,0.40
2022-08-11T19:14:00.260Z,0.70
2022-08-11T19:19:21.946Z,0.50
2022-08-11T19:24:46.647Z,0.70
2022-08-11T19:30:13.766Z,0.63
2022-08-11T19:35:36.217Z,0.60
2022-08-11T19:40:59.504Z,0.50
2022-08-11T19:46:23.768Z,0.60
2022-08-11T19:51:47.337Z,0.60
2022-08-11T19:57:17.631Z,0.43
2022-08-11T20:02:39.302Z,0.70
2022-08-11T20:08:01.676Z,0.60
2022-08-11T20:13:26.622Z,0.60
2022-08-11T20:18:48.378Z,0.60
2022-08-11T20:24:09.379Z,0.57
2022-08-11T20:29:32.902Z,0.63
2022-08-11T20:34:56.291Z,0.70
2022-08-11T20:40:23.755Z,0.80
2022-08-11T20:45:55.237Z,0.80
2022-08-11T20:51:19.387Z,0.80
2022-08-11T20:56:41.704Z,0.80
2022-08-11T21:02:10.593Z,0.90
2022-08-11T21:07:34.958Z,0.80
2022-08-11T21:13:26.223Z,0.80
2022-08-11T21:18:47.273Z,0.77
2022-08-11T21:24:10.766Z,0.80
2022-08-11T21:29:33.008Z,1.10
2022-08-11T21:34:56.540Z,1.27
2022-08-11T21:40:18.713Z,1.00
2022-08-11T21:45:41.438Z,0.87
2022-08-11T21:51:03.742Z,1.10
2022-08-11T21:56:27.670Z,1.20
2022-08-11T22:01:51.191Z,1.03
2022-08-11T22:07:14.562Z,1.20
2022-08-11T22:12:37.118Z,1.10
2022-08-11T22:18:01.301Z,1.20
2022-08-11T22:23:24.962Z,1.07
2022-08-11T22:28:56.186Z,1.30
2022-08-11T22:34:18.240Z,1.17
2022-08-11T22:39:42.592Z,1.33
2022-08-11T22:45:04.030Z,1.10
2022-08-11T22:50:28.617Z,0.97
2022-08-11T22:55:51.440Z,1.30
2022-08-11T23:01:13.879Z,1.40
2022-08-11T23:06:36.358Z,0.93
2022-08-11T23:12:06.940Z,0.90
2022-08-11T23:17:31.887Z,1.00
2022-08-11T23:22:53.684Z,1.00
2022-08-11T23:28:19.971Z,1.03
2022-08-11T23:33:42.762Z,1.00
2022-08-11T23:39:03.993Z,1.00
2022-08-11T23:44:27.830Z,1.10
2022-08-11T23:49:49.535Z,1.00
2022-08-11T23:55:11.145Z,0.90
